createdAt,value
2019-03-27T00:00:09.775Z,88.00
2019-03-27T00:02:57.735Z,88.40
2019-03-27T00:05:26.152Z,87.60
2019-03-27T00:07:54.591Z,88.40
2019-03-27T00:10:23.018Z,89.50
2019-03-27T00:12:51.500Z,89.10
2019-03-27T00:15:19.912Z,89.10
2019-03-27T00:17:48.387Z,89.30
2019-03-27T00:20:16.880Z,89.60
2019-03-27T00:22:45.290Z,90.00
2019-03-27T00:25:13.787Z,90.10
2019-03-27T00:27:42.179Z,90.30
2019-03-27T00:30:11.165Z,90.70
2019-03-27T00:32:39.561Z,90.90
2019-03-27T00:35:08.956Z,90.70
2019-03-27T00:37:37.451Z,90.10
2019-03-27T00:40:07.104Z,90.20
2019-03-27T00:42:35.731Z,90.00
2019-03-27T00:45:09.334Z,90.00
2019-03-27T00:47:37.815Z,90.10
2019-03-27T00:50:07.479Z,90.50
2019-03-27T00:52:35.970Z,90.70
2019-03-27T00:55:07.002Z,90.80
2019-03-27T00:57:35.405Z,90.70
2019-03-27T01:00:07.048Z,91.10
2019-03-27T01:02:35.456Z,90.90
2019-03-27T01:05:05.614Z,90.70
2019-03-27T01:07:34.007Z,90.70
2019-03-27T01:10:02.496Z,90.90
2019-03-27T01:12:30.904Z,91.30
2019-03-27T01:14:59.311Z,91.10
2019-03-27T01:17:27.711Z,91.10
2019-03-27T01:19:56.127Z,91.20
2019-03-27T01:22:24.549Z,92.00
2019-03-27T01:24:52.960Z,92.00
2019-03-27T01:27:21.393Z,91.60
2019-03-27T01:29:49.799Z,92.00
2019-03-27T01:32:18.223Z,92.10
2019-03-27T01:34:46.635Z,92.10
2019-03-27T01:37:15.053Z,92.20
2019-03-27T01:39:43.455Z,91.90
2019-03-27T01:42:11.872Z,92.00
2019-03-27T01:44:40.275Z,91.90
2019-03-27T01:47:08.683Z,92.30
2019-03-27T01:49:37.115Z,92.40
2019-03-27T01:52:07.905Z,91.80
2019-03-27T01:54:35.649Z,91.80
2019-03-27T01:57:04.133Z,91.70
2019-03-27T01:59:32.595Z,91.40
2019-03-27T02:02:01.005Z,91.40
2019-03-27T02:04:29.411Z,91.50
2019-03-27T02:06:57.808Z,91.80
2019-03-27T02:09:26.255Z,92.00
2019-03-27T02:11:54.659Z,92.30
2019-03-27T02:14:23.083Z,92.10
2019-03-27T02:16:51.479Z,92.20
2019-03-27T02:19:19.968Z,92.30
2019-03-27T02:21:48.383Z,92.30
2019-03-27T02:24:16.795Z,92.50
2019-03-27T02:26:45.199Z,92.50
2019-03-27T02:29:13.627Z,92.70
2019-03-27T02:31:42.042Z,92.60
2019-03-27T02:34:10.433Z,92.80
2019-03-27T02:36:38.871Z,92.50
2019-03-27T02:39:07.462Z,92.70
2019-03-27T02:41:35.871Z,92.90
2019-03-27T02:44:04.422Z,92.80
2019-03-27T02:46:32.849Z,92.80
2019-03-27T02:49:01.257Z,93.20
2019-03-27T02:51:29.674Z,93.30
2019-03-27T02:53:58.067Z,93.20
2019-03-27T02:56:26.538Z,93.30
2019-03-27T02:58:54.911Z,93.40
2019-03-27T03:01:23.324Z,93.40
2019-03-27T03:03:51.768Z,93.50
2019-03-27T03:06:20.171Z,93.70
2019-03-27T03:08:48.575Z,93.90
2019-03-27T03:11:16.985Z,94.00
2019-03-27T03:13:45.439Z,94.00
2019-03-27T03:16:13.856Z,94.10
2019-03-27T03:18:42.250Z,94.00
2019-03-27T03:21:10.673Z,94.10
2019-03-27T03:23:39.091Z,94.20
2019-03-27T03:26:07.498Z,94.40
2019-03-27T03:28:35.901Z,94.70
2019-03-27T03:31:04.330Z,94.70
2019-03-27T03:33:32.753Z,94.70
2019-03-27T03:36:01.222Z,94.50
2019-03-27T03:38:29.637Z,94.40
2019-03-27T03:40:58.049Z,94.30
2019-03-27T03:43:26.534Z,94.20
2019-03-27T03:45:54.927Z,94.30
2019-03-27T03:48:23.347Z,94.30
2019-03-27T03:50:54.250Z,94.40
2019-03-27T03:53:23.203Z,94.30
2019-03-27T03:55:52.648Z,94.50
2019-03-27T03:58:24.406Z,94.50
2019-03-27T04:00:53.671Z,94.50
2019-03-27T04:03:25.151Z,94.60
2019-03-27T04:05:53.569Z,94.80
2019-03-27T04:08:21.996Z,95.00
2019-03-27T04:10:50.403Z,95.10
2019-03-27T04:13:18.835Z,95.40
2019-03-27T04:15:47.414Z,95.60
2019-03-27T04:18:15.820Z,95.60
2019-03-27T04:20:44.230Z,95.90
2019-03-27T04:23:12.664Z,96.10
2019-03-27T04:26:07.210Z,96.30
2019-03-27T04:28:11.225Z,96.30
2019-03-27T04:30:39.679Z,96.40
2019-03-27T04:33:08.135Z,96.40
2019-03-27T04:35:36.549Z,96.40
2019-03-27T04:38:05.016Z,96.70
2019-03-27T04:40:33.490Z,96.70
2019-03-27T04:43:01.910Z,96.90
2019-03-27T04:45:30.352Z,96.90
2019-03-27T04:47:58.783Z,96.80
2019-03-27T04:50:27.197Z,96.70
2019-03-27T04:52:55.602Z,96.90
2019-03-27T04:55:23.999Z,96.60
2019-03-27T04:57:52.436Z,96.70
2019-03-27T05:00:21.478Z,96.90
2019-03-27T05:02:49.898Z,97.00
2019-03-27T05:05:18.322Z,97.30
2019-03-27T05:07:46.746Z,97.10
2019-03-27T05:10:15.315Z,97.30
2019-03-27T05:12:43.727Z,97.60
2019-03-27T05:15:12.211Z,97.80
2019-03-27T05:17:46.234Z,97.60
2019-03-27T05:20:10.958Z,97.40
2019-03-27T05:22:39.372Z,96.90
2019-03-27T05:25:08.529Z,97.50
2019-03-27T05:27:36.918Z,98.00
2019-03-27T05:30:06.772Z,97.70
2019-03-27T05:32:35.170Z,97.70
2019-03-27T05:35:05.314Z,97.50
2019-03-27T05:37:33.743Z,97.70
2019-03-27T05:40:02.184Z,97.50
2019-03-27T05:42:30.629Z,97.80
2019-03-27T05:44:59.071Z,98.00
2019-03-27T05:47:27.479Z,98.20
2019-03-27T05:49:55.895Z,98.20
2019-03-27T05:52:24.322Z,97.80
2019-03-27T05:54:52.732Z,97.30
2019-03-27T05:57:21.131Z,97.30
2019-03-27T05:59:49.559Z,97.10
2019-03-27T06:02:17.962Z,97.10
2019-03-27T06:04:46.382Z,96.80
2019-03-27T06:07:14.778Z,96.50
2019-03-27T06:09:43.194Z,96.40
2019-03-27T06:12:11.591Z,96.20
2019-03-27T06:14:40.014Z,95.70
2019-03-27T06:17:08.406Z,95.40
2019-03-27T06:19:36.815Z,95.00
2019-03-27T06:22:05.211Z,94.80
2019-03-27T06:24:33.662Z,94.30
2019-03-27T06:27:02.114Z,94.10
2019-03-27T06:29:33.547Z,94.40
2019-03-27T06:32:02.453Z,94.40
2019-03-27T06:34:30.879Z,94.60
2019-03-27T06:36:59.290Z,94.80
2019-03-27T06:39:27.691Z,94.80
2019-03-27T06:41:56.102Z,95.30
2019-03-27T06:44:24.531Z,95.30
2019-03-27T06:46:52.920Z,95.40
2019-03-27T06:49:21.346Z,95.50
2019-03-27T06:51:49.752Z,96.20
2019-03-27T06:54:18.143Z,96.70
2019-03-27T06:56:46.576Z,96.70
2019-03-27T06:59:14.989Z,96.30
2019-03-27T07:01:43.472Z,96.80
2019-03-27T07:04:11.867Z,96.30
2019-03-27T07:06:40.273Z,96.20
2019-03-27T07:09:09.355Z,96.30
2019-03-27T07:11:37.777Z,95.50
2019-03-27T07:14:06.193Z,94.90
2019-03-27T07:16:34.591Z,94.40
2019-03-27T07:19:03.012Z,93.20
2019-03-27T07:21:31.405Z,91.80
2019-03-27T07:23:59.816Z,91.70
2019-03-27T07:26:28.242Z,91.30
2019-03-27T07:28:56.663Z,90.30
2019-03-27T07:31:25.106Z,88.10
2019-03-27T07:33:53.491Z,86.90
2019-03-27T07:36:21.898Z,86.60
2019-03-27T07:38:50.315Z,85.10
2019-03-27T07:41:18.726Z,85.70
2019-03-27T07:43:47.127Z,85.70
2019-03-27T07:46:15.578Z,82.20
2019-03-27T07:48:53.977Z,80.90
2019-03-27T07:51:14.152Z,81.70
2019-03-27T07:53:42.555Z,82.10
2019-03-27T07:56:10.974Z,80.00
2019-03-27T07:58:39.383Z,78.00
2019-03-27T08:01:07.800Z,76.60
2019-03-27T08:03:36.202Z,76.20
2019-03-27T08:06:05.101Z,77.90
2019-03-27T08:08:33.511Z,78.00
2019-03-27T08:11:01.948Z,74.80
2019-03-27T08:13:30.394Z,73.70
2019-03-27T08:15:58.871Z,71.40
2019-03-27T08:18:27.259Z,70.20
2019-03-27T08:20:55.658Z,67.40
2019-03-27T08:23:24.081Z,66.20
2019-03-27T08:25:52.483Z,63.50
2019-03-27T08:28:20.902Z,61.70
2019-03-27T08:30:49.324Z,60.50
2019-03-27T08:33:17.759Z,59.20
2019-03-27T08:35:46.161Z,59.30
2019-03-27T08:38:15.153Z,59.90
2019-03-27T08:40:43.814Z,59.80
2019-03-27T08:43:21.151Z,58.60
2019-03-27T08:45:42.440Z,53.90
2019-03-27T08:48:10.871Z,52.40
2019-03-27T08:50:39.284Z,50.50
2019-03-27T08:53:07.705Z,52.60
2019-03-27T08:55:36.185Z,52.80
2019-03-27T08:58:04.591Z,51.20
2019-03-27T09:00:47.863Z,51.30
2019-03-27T09:03:16.613Z,51.70
2019-03-27T09:05:45.002Z,50.50
2019-03-27T09:08:13.723Z,49.30
2019-03-27T09:10:42.427Z,49.50
2019-03-27T09:13:10.876Z,49.10
2019-03-27T09:15:39.254Z,50.30
2019-03-27T09:18:07.685Z,49.90
2019-03-27T09:20:36.091Z,49.80
2019-03-27T09:23:04.511Z,48.70
2019-03-27T09:25:32.923Z,48.50
2019-03-27T09:28:01.351Z,47.80
2019-03-27T09:30:29.795Z,47.20
2019-03-27T09:32:58.215Z,47.30
2019-03-27T09:35:26.637Z,46.20
2019-03-27T09:37:55.026Z,44.70
2019-03-27T09:40:23.499Z,43.20
2019-03-27T09:42:51.911Z,41.20
2019-03-27T09:45:20.336Z,42.40
2019-03-27T09:47:48.737Z,40.90
2019-03-27T09:50:17.147Z,39.90
2019-03-27T09:52:45.544Z,39.00
2019-03-27T09:55:15.836Z,36.70
2019-03-27T09:57:44.215Z,34.60
2019-03-27T10:00:12.884Z,36.50
2019-03-27T10:02:41.293Z,35.40
2019-03-27T10:05:09.941Z,34.00
2019-03-27T10:07:38.344Z,32.90
2019-03-27T10:10:26.104Z,34.00
2019-03-27T10:12:54.487Z,33.60
2019-03-27T10:15:22.891Z,31.50
2019-03-27T10:17:51.315Z,30.50
2019-03-27T10:20:19.748Z,30.00
2019-03-27T10:22:48.131Z,29.70
2019-03-27T10:25:16.595Z,29.40
2019-03-27T10:27:44.990Z,29.60
2019-03-27T10:30:13.767Z,31.60
2019-03-27T10:32:42.156Z,36.10
2019-03-27T10:35:10.644Z,38.90
2019-03-27T10:37:39.076Z,40.50
2019-03-27T10:40:09.169Z,41.30
2019-03-27T10:42:37.551Z,42.50
2019-03-27T10:45:06.502Z,42.50
2019-03-27T10:47:34.964Z,43.50
2019-03-27T10:50:17.023Z,44.10
2019-03-27T10:52:35.487Z,43.40
2019-03-27T10:55:04.833Z,40.50
2019-03-27T10:57:33.275Z,39.70
2019-03-27T11:00:01.687Z,38.90
2019-03-27T11:02:30.090Z,38.60
2019-03-27T11:04:58.513Z,39.70
2019-03-27T11:07:26.909Z,41.60
2019-03-27T11:09:55.310Z,41.10
2019-03-27T11:12:23.705Z,41.30
2019-03-27T11:14:52.110Z,40.80
2019-03-27T11:17:20.541Z,39.80
2019-03-27T11:19:48.950Z,39.90
2019-03-27T11:22:17.351Z,39.90
2019-03-27T11:24:45.827Z,41.40
2019-03-27T11:27:14.237Z,42.60
2019-03-27T11:29:42.815Z,42.90
2019-03-27T11:32:11.215Z,43.50
2019-03-27T11:34:39.608Z,43.80
2019-03-27T11:37:08.030Z,43.70
2019-03-27T11:39:36.440Z,43.60
2019-03-27T11:42:04.839Z,44.10
2019-03-27T11:44:33.265Z,44.00
2019-03-27T11:47:01.705Z,44.20
2019-03-27T11:49:30.088Z,44.30
2019-03-27T11:51:58.574Z,44.40
2019-03-27T11:54:27.047Z,43.60
2019-03-27T11:56:55.502Z,43.40
2019-03-27T11:59:23.891Z,42.60
2019-03-27T12:01:52.300Z,37.50
2019-03-27T12:04:20.717Z,36.10
2019-03-27T12:06:49.137Z,35.20
2019-03-27T12:09:17.536Z,35.50
2019-03-27T12:11:46.003Z,37.30
2019-03-27T12:14:14.449Z,39.40
2019-03-27T12:16:42.941Z,40.80
2019-03-27T12:19:11.353Z,42.20
2019-03-27T12:21:39.771Z,42.90
2019-03-27T12:24:08.179Z,41.90
2019-03-27T12:26:36.711Z,42.30
2019-03-27T12:29:05.205Z,41.30
2019-03-27T12:31:33.656Z,42.00
2019-03-27T12:34:02.076Z,42.10
2019-03-27T12:36:30.632Z,43.50
2019-03-27T12:38:59.047Z,43.40
2019-03-27T12:41:27.477Z,41.80
2019-03-27T12:43:55.942Z,41.30
2019-03-27T12:46:24.322Z,41.30
2019-03-27T12:48:52.747Z,42.00
2019-03-27T12:51:21.165Z,40.70
2019-03-27T12:53:49.590Z,40.40
2019-03-27T12:56:18.000Z,39.40
2019-03-27T12:58:46.413Z,39.10
2019-03-27T13:01:14.900Z,40.00
2019-03-27T13:03:44.663Z,38.60
2019-03-27T13:06:13.293Z,37.70
2019-03-27T13:08:41.718Z,38.60
2019-03-27T13:11:10.144Z,37.90
2019-03-27T13:13:38.566Z,38.50
2019-03-27T13:16:06.979Z,37.60
2019-03-27T13:18:35.393Z,38.90
2019-03-27T13:21:03.864Z,39.40
2019-03-27T13:23:32.278Z,38.90
2019-03-27T13:26:00.679Z,38.00
2019-03-27T13:28:29.113Z,36.70
2019-03-27T13:30:57.524Z,36.60
2019-03-27T13:33:25.959Z,36.00
2019-03-27T13:35:54.355Z,36.10
2019-03-27T13:38:22.769Z,36.20
2019-03-27T13:40:51.163Z,37.80
2019-03-27T13:43:19.588Z,38.00
2019-03-27T13:45:47.984Z,37.60
2019-03-27T13:48:16.405Z,38.90
2019-03-27T13:50:44.838Z,40.70
2019-03-27T13:53:13.226Z,41.70
2019-03-27T13:55:41.654Z,41.90
2019-03-27T13:58:10.056Z,41.40
2019-03-27T14:00:38.480Z,41.00
2019-03-27T14:03:06.949Z,41.50
2019-03-27T14:05:35.355Z,41.50
2019-03-27T14:08:05.607Z,42.20
2019-03-27T14:10:34.101Z,41.40
2019-03-27T14:13:02.631Z,41.90
2019-03-27T14:15:31.104Z,41.50
2019-03-27T14:17:59.518Z,39.80
2019-03-27T14:20:27.930Z,40.00
2019-03-27T14:22:56.347Z,40.30
2019-03-27T14:25:24.741Z,39.30
2019-03-27T14:27:53.169Z,40.00
2019-03-27T14:30:30.159Z,40.90
2019-03-27T14:32:58.576Z,40.30
2019-03-27T14:35:27.023Z,40.30
2019-03-27T14:37:55.410Z,41.20
2019-03-27T14:40:23.864Z,40.80
2019-03-27T14:42:52.289Z,40.20
2019-03-27T14:45:20.715Z,40.00
2019-03-27T14:47:49.116Z,40.40
2019-03-27T14:50:17.545Z,40.30
2019-03-27T14:52:46.061Z,40.40
2019-03-27T14:55:14.952Z,40.10
2019-03-27T14:57:43.382Z,40.30
2019-03-27T15:00:12.891Z,40.30
2019-03-27T15:02:41.432Z,41.30
2019-03-27T15:05:10.192Z,41.30
2019-03-27T15:07:38.732Z,42.00
2019-03-27T15:10:08.870Z,42.00
2019-03-27T15:12:37.746Z,40.30
2019-03-27T15:15:07.991Z,41.70
2019-03-27T15:17:36.654Z,41.30
2019-03-27T15:20:09.843Z,41.20
2019-03-27T15:22:38.242Z,41.20
2019-03-27T15:25:07.910Z,41.00
2019-03-27T15:27:36.315Z,38.20
2019-03-27T15:30:07.570Z,37.20
2019-03-27T15:32:36.145Z,37.30
2019-03-27T15:35:06.044Z,37.60
2019-03-27T15:37:34.456Z,39.60
2019-03-27T15:40:02.971Z,39.40
2019-03-27T15:42:31.401Z,39.80
2019-03-27T15:44:59.981Z,41.60
2019-03-27T15:47:28.378Z,41.30
2019-03-27T15:49:56.790Z,41.00
2019-03-27T15:52:35.795Z,40.90
2019-03-27T15:54:55.369Z,41.20
2019-03-27T15:57:23.879Z,41.00
2019-03-27T15:59:52.271Z,41.10
2019-03-27T16:02:20.685Z,41.40
2019-03-27T16:04:49.080Z,41.50
2019-03-27T16:07:17.643Z,41.80
2019-03-27T16:09:46.039Z,41.60
2019-03-27T16:12:14.551Z,41.50
2019-03-27T16:14:42.955Z,41.60
2019-03-27T16:17:13.710Z,42.10
2019-03-27T16:19:41.556Z,42.10
2019-03-27T16:22:09.967Z,43.80
2019-03-27T16:24:38.382Z,43.10
2019-03-27T16:27:06.803Z,42.30
2019-03-27T16:29:35.217Z,41.80
2019-03-27T16:32:03.900Z,42.40
2019-03-27T16:34:32.316Z,42.60
2019-03-27T16:37:00.728Z,42.30
2019-03-27T16:39:29.190Z,43.20
2019-03-27T16:41:57.726Z,43.10
2019-03-27T16:44:26.151Z,42.90
2019-03-27T16:46:54.617Z,42.90
2019-03-27T16:49:23.034Z,43.40
2019-03-27T16:52:10.795Z,43.60
2019-03-27T16:54:39.842Z,44.20
2019-03-27T16:57:08.266Z,43.60
2019-03-27T16:59:39.692Z,44.10
2019-03-27T17:02:08.138Z,44.30
2019-03-27T17:04:36.555Z,44.40
2019-03-27T17:07:05.114Z,44.30
2019-03-27T17:09:33.540Z,44.70
2019-03-27T17:12:01.960Z,44.60
2019-03-27T17:14:30.392Z,45.10
2019-03-27T17:16:58.871Z,45.70
2019-03-27T17:19:27.291Z,45.50
2019-03-27T17:21:57.837Z,46.10
2019-03-27T17:24:26.222Z,46.20
2019-03-27T17:26:54.644Z,46.30
2019-03-27T17:29:23.043Z,46.10
2019-03-27T17:31:53.125Z,45.80
2019-03-27T17:34:21.522Z,45.60
2019-03-27T17:36:49.950Z,46.60
2019-03-27T17:39:18.380Z,46.90
2019-03-27T17:41:46.805Z,47.20
2019-03-27T17:44:15.207Z,47.50
2019-03-27T17:46:43.659Z,47.80
2019-03-27T17:49:12.068Z,48.50
2019-03-27T17:51:40.529Z,48.40
2019-03-27T17:54:20.020Z,48.50
2019-03-27T17:56:39.186Z,49.00
2019-03-27T17:59:07.605Z,49.30
2019-03-27T18:01:36.090Z,49.30
2019-03-27T18:04:04.633Z,49.50
2019-03-27T18:06:33.031Z,50.20
2019-03-27T18:09:01.465Z,49.90
2019-03-27T18:11:29.867Z,50.30
2019-03-27T18:13:58.294Z,50.60
2019-03-27T18:16:26.711Z,51.20
2019-03-27T18:18:55.128Z,51.40
2019-03-27T18:21:23.939Z,51.80
2019-03-27T18:23:52.442Z,52.40
2019-03-27T18:26:24.553Z,52.00
2019-03-27T18:28:52.967Z,52.40
2019-03-27T18:31:21.373Z,52.50
2019-03-27T18:33:49.851Z,52.70
2019-03-27T18:36:18.297Z,53.60
2019-03-27T18:38:46.715Z,56.00
2019-03-27T18:41:15.186Z,55.30
2019-03-27T18:43:43.698Z,55.70
2019-03-27T18:46:12.337Z,54.60
2019-03-27T18:48:40.759Z,54.10
2019-03-27T18:51:09.164Z,54.30
2019-03-27T18:53:37.666Z,53.60
2019-03-27T18:56:06.164Z,56.20
2019-03-27T18:58:34.598Z,54.90
2019-03-27T19:01:03.035Z,55.10
2019-03-27T19:03:31.448Z,54.80
2019-03-27T19:05:59.885Z,55.00
2019-03-27T19:08:28.282Z,55.20
2019-03-27T19:10:56.702Z,55.10
2019-03-27T19:13:25.115Z,56.70
2019-03-27T19:15:53.544Z,55.70
2019-03-27T19:18:21.994Z,56.50
2019-03-27T19:20:50.503Z,57.00
2019-03-27T19:23:18.903Z,58.80
2019-03-27T19:25:47.382Z,58.60
2019-03-27T19:28:15.802Z,58.50
2019-03-27T19:30:44.226Z,59.20
2019-03-27T19:33:12.684Z,59.80
2019-03-27T19:35:41.104Z,59.90
2019-03-27T19:38:09.589Z,60.70
2019-03-27T19:40:38.026Z,62.30
2019-03-27T19:43:06.431Z,63.80
2019-03-27T19:45:34.934Z,66.20
2019-03-27T19:48:03.348Z,65.90
2019-03-27T19:50:31.759Z,66.80
2019-03-27T19:53:00.152Z,67.30
2019-03-27T19:55:28.582Z,67.80
2019-03-27T19:57:56.970Z,68.90
2019-03-27T20:00:25.836Z,69.80
2019-03-27T20:02:54.242Z,70.00
2019-03-27T20:05:22.690Z,68.50
2019-03-27T20:07:51.075Z,69.50
2019-03-27T20:10:19.490Z,70.00
2019-03-27T20:12:47.909Z,72.10
2019-03-27T20:15:16.479Z,71.10
2019-03-27T20:17:44.908Z,70.90
2019-03-27T20:20:13.648Z,72.10
2019-03-27T20:22:42.113Z,72.00
2019-03-27T20:25:13.338Z,72.90
2019-03-27T20:27:41.186Z,73.60
2019-03-27T20:30:13.136Z,74.50
2019-03-27T20:32:41.821Z,74.70
2019-03-27T20:35:10.868Z,74.80
2019-03-27T20:37:39.291Z,75.90
2019-03-27T20:40:08.243Z,77.00
2019-03-27T20:46:05.227Z,79.30
2019-03-27T20:48:33.670Z,79.50
2019-03-27T20:51:02.124Z,79.60
2019-03-27T20:53:30.509Z,81.30
2019-03-27T20:55:58.931Z,80.60
2019-03-27T20:58:27.336Z,79.70
2019-03-27T21:00:55.755Z,78.60
2019-03-27T21:03:24.160Z,77.60
2019-03-27T21:05:52.586Z,77.00
2019-03-27T21:08:21.048Z,77.10
2019-03-27T21:10:49.552Z,76.30
2019-03-27T21:13:17.943Z,76.20
2019-03-27T21:15:46.431Z,76.40
2019-03-27T21:18:14.836Z,77.10
2019-03-27T21:20:43.325Z,78.70
2019-03-27T21:23:11.862Z,79.10
2019-03-27T21:25:40.271Z,79.00
2019-03-27T21:28:08.675Z,79.60
2019-03-27T21:30:37.093Z,79.90
2019-03-27T21:33:05.488Z,81.30
2019-03-27T21:35:33.914Z,80.40
2019-03-27T21:38:02.308Z,80.30
2019-03-27T21:40:30.727Z,80.80
2019-03-27T21:42:59.300Z,81.50
2019-03-27T21:45:27.724Z,81.50
2019-03-27T21:47:56.141Z,82.00
2019-03-27T21:50:24.555Z,82.00
2019-03-27T21:53:00.482Z,82.30
2019-03-27T21:55:23.358Z,83.00
2019-03-27T21:57:51.879Z,83.20
2019-03-27T22:00:37.609Z,83.50
2019-03-27T22:03:07.047Z,83.50
2019-03-27T22:05:35.550Z,84.40
2019-03-27T22:08:04.171Z,84.30
2019-03-27T22:10:32.858Z,85.60
2019-03-27T22:13:01.258Z,85.00
2019-03-27T22:15:29.671Z,84.20
2019-03-27T22:17:58.066Z,84.50
2019-03-27T22:20:26.504Z,83.60
2019-03-27T22:22:54.941Z,86.30
2019-03-27T22:25:35.465Z,88.20
2019-03-27T22:27:53.476Z,88.80
2019-03-27T22:30:21.932Z,88.30
2019-03-27T22:32:50.383Z,87.50
2019-03-27T22:35:18.826Z,86.80
2019-03-27T22:37:47.227Z,87.00
2019-03-27T22:40:15.659Z,86.90
2019-03-27T22:42:45.698Z,86.40
2019-03-27T22:45:14.254Z,86.60
2019-03-27T22:47:42.675Z,87.60
2019-03-27T22:50:12.645Z,87.70
2019-03-27T22:52:41.043Z,88.30
2019-03-27T22:55:09.534Z,88.50
2019-03-27T22:57:37.943Z,88.70
2019-03-27T23:00:09.546Z,88.70
2019-03-27T23:02:38.154Z,89.30
2019-03-27T23:05:07.203Z,88.80
2019-03-27T23:07:35.640Z,89.00
2019-03-27T23:10:06.054Z,89.10
2019-03-27T23:12:35.220Z,89.40
2019-03-27T23:15:05.450Z,90.00
2019-03-27T23:17:33.847Z,90.20
2019-03-27T23:20:02.272Z,90.30
2019-03-27T23:22:30.685Z,90.00
2019-03-27T23:24:59.150Z,90.00
2019-03-27T23:27:27.545Z,90.40
2019-03-27T23:29:55.959Z,91.00
2019-03-27T23:32:24.363Z,90.80
2019-03-27T23:34:52.788Z,90.60
2019-03-27T23:37:21.189Z,90.40
2019-03-27T23:39:49.662Z,90.50
2019-03-27T23:42:18.066Z,90.60
2019-03-27T23:44:46.493Z,90.50
2019-03-27T23:47:14.895Z,90.50
2019-03-27T23:49:43.354Z,90.70
2019-03-27T23:52:11.777Z,90.70
2019-03-27T23:54:40.183Z,90.80
2019-03-27T23:57:08.591Z,90.70
2019-03-27T23:59:37.030Z,90.70
